Terminal Aerodrome Forecast
Issued by NWS Charleston, WV

Current Version | Previous Version | Graphics & Text | Print | Product List | Glossary On
Versions: 1 2 3 4 5 6 7 8 9 10 11 12 13 14 15 16 17 18 19 20 21 22 23 24 25 26 27 28
000
FTUS41 KRLX 150900 AAA
TAFBKW
TAF AMD
KBKW 150903Z 1509/1606 23009KT 6SM -SHRA BKN050
     FM151100 30011G19KT 5SM -SHRA OVC016
     FM151400 31011G20KT 5SM -SHRA OVC009
     FM151700 33011G20KT 6SM -SHRA OVC010
     FM151900 33012G21KT 6SM -SHRASN OVC015
     FM152000 33013G22KT 6SM -SHRASN OVC025
     FM152300 32012G20KT P6SM BKN030=

USA.gov is the U.S. government's official web portal to all federal, state and local government web resources and services.